Time;durP1;ratioP1;P1;durP2;ratioP2;P2;SDS_P1;SDS_P2;PMS_P1;PMS_P2;Temp;Humidity;BMP_temperature;BMP_pressure;BME280_temperature;BME280_humidity;BME280_pressure;Samples;Min_cycle;Max_cycle;Signal;HPM_P1;HPM_P2
2020/12/30 00:00:52;;;;;;;6.38;5.10;;;3.70;99.90;;;;;;5013262;28;20345;-84
2020/12/30 00:03:18;;;;;;;5.93;3.50;;;3.60;99.90;;;;;;5012974;28;20572;-84
2020/12/30 00:05:45;;;;;;;5.95;4.10;;;3.60;99.90;;;;;;5013005;28;20203;-85
2020/12/30 00:08:12;;;;;;;5.13;4.05;;;3.70;99.90;;;;;;5011611;28;20745;-84
2020/12/30 00:10:39;;;;;;;5.35;3.97;;;3.60;99.90;;;;;;5013367;28;20337;-84
2020/12/30 00:13:05;;;;;;;6.32;4.35;;;3.60;99.90;;;;;;5011981;28;20290;-84
2020/12/30 00:15:32;;;;;;;6.30;4.05;;;3.70;99.90;;;;;;5013018;28;20296;-84
2020/12/30 00:17:58;;;;;;;5.00;3.90;;;3.70;99.90;;;;;;5013025;28;20290;-86
2020/12/30 00:20:25;;;;;;;4.70;3.72;;;3.70;99.90;;;;;;5012845;28;20204;-84
2020/12/30 00:22:51;;;;;;;8.95;4.28;;;3.80;99.90;;;;;;5011701;28;20559;-84
2020/12/30 00:25:18;;;;;;;7.80;4.30;;;3.80;99.90;;;;;;5012977;28;20298;-84
2020/12/30 00:27:45;;;;;;;3.60;3.30;;;3.70;99.90;;;;;;5012833;28;20303;-84
2020/12/30 00:30:14;;;;;;;6.10;3.72;;;3.80;99.90;;;;;;5013001;28;20203;-84
2020/12/30 00:32:40;;;;;;;6.05;3.50;;;3.70;99.90;;;;;;5012939;28;20314;-84
2020/12/30 00:35:07;;;;;;;4.10;3.70;;;3.80;99.90;;;;;;5011464;28;20223;-84
2020/12/30 00:37:33;;;;;;;6.45;3.83;;;3.80;99.90;;;;;;5011598;28;20239;-83
2020/12/30 00:40:00;;;;;;;3.95;3.20;;;3.80;99.90;;;;;;5012666;28;20288;-84
2020/12/30 00:42:30;;;;;;;3.40;3.00;;;3.80;99.90;;;;;;5012927;28;20302;-84
2020/12/30 00:44:58;;;;;;;3.25;2.95;;;3.80;99.90;;;;;;5012636;28;20207;-84
2020/12/30 00:47:25;;;;;;;4.00;2.28;;;3.90;99.90;;;;;;5012759;28;20302;-84
2020/12/30 00:49:51;;;;;;;3.47;2.58;;;4.00;99.90;;;;;;5014511;28;20638;-84
2020/12/30 00:52:17;;;;;;;2.80;2.50;;;4.00;99.90;;;;;;5015688;28;20661;-84
2020/12/30 00:54:44;;;;;;;3.35;2.40;;;4.00;99.90;;;;;;5016588;28;20203;-84
2020/12/30 00:57:10;;;;;;;4.10;2.58;;;4.00;99.90;;;;;;5016476;28;20321;-84
2020/12/30 00:59:39;;;;;;;4.53;2.60;;;4.00;99.90;;;;;;5016438;28;20238;-84
2020/12/30 01:02:05;;;;;;;2.92;2.58;;;4.00;99.90;;;;;;5016583;28;20203;-85
2020/12/30 01:04:32;;;;;;;2.83;2.20;;;3.90;99.90;;;;;;5015201;28;20253;-84
2020/12/30 01:06:58;;;;;;;4.95;1.92;;;3.80;99.90;;;;;;5015238;28;20294;-84
2020/12/30 01:09:26;;;;;;;3.28;2.38;;;3.80;99.90;;;;;;5016309;28;20346;-84
2020/12/30 01:11:53;;;;;;;3.25;2.33;;;3.80;99.90;;;;;;5015253;28;20213;-84
2020/12/30 01:14:20;;;;;;;1.80;1.50;;;3.80;99.90;;;;;;5016135;28;20266;-85
2020/12/30 01:16:52;;;;;;;1.90;1.80;;;3.80;99.90;;;;;;5016238;28;20310;-84
2020/12/30 01:19:19;;;;;;;3.03;2.05;;;3.80;99.90;;;;;;5016052;28;20286;-84
2020/12/30 01:21:46;;;;;;;2.58;1.70;;;3.80;99.90;;;;;;5015139;28;20646;-85
2020/12/30 01:24:12;;;;;;;3.38;2.10;;;3.80;99.90;;;;;;5016053;28;20215;-85
2020/12/30 01:26:39;;;;;;;3.90;2.35;;;3.80;99.90;;;;;;5016233;28;20210;-85
2020/12/30 01:29:06;;;;;;;2.53;2.35;;;3.80;99.90;;;;;;5015834;28;20207;-85
2020/12/30 01:31:34;;;;;;;2.67;1.83;;;3.80;99.90;;;;;;5016017;28;20624;-85
2020/12/30 01:34:02;;;;;;;3.33;2.17;;;3.80;99.90;;;;;;5014807;28;20211;-85
2020/12/30 01:36:29;;;;;;;3.45;1.90;;;3.80;99.90;;;;;;5014460;28;20227;-84
2020/12/30 01:38:56;;;;;;;3.63;2.45;;;3.80;99.90;;;;;;5016137;28;20212;-84
2020/12/30 01:41:23;;;;;;;3.65;2.58;;;3.70;99.90;;;;;;5015716;28;20332;-84
2020/12/30 01:44:00;;;;;;;2.95;2.65;;;3.70;99.90;;;;;;5015369;28;20208;-84
2020/12/30 01:46:38;;;;;;;2.40;2.13;;;3.80;99.90;;;;;;5015234;28;20730;-85
2020/12/30 01:49:10;;;;;;;7.30;3.08;;;3.70;99.90;;;;;;5015613;28;20294;-86
2020/12/30 01:51:39;;;;;;;4.55;3.00;;;3.70;99.90;;;;;;5014536;28;20207;-85
2020/12/30 01:54:05;;;;;;;3.28;2.45;;;3.80;99.90;;;;;;5015728;28;20207;-86
2020/12/30 01:56:34;;;;;;;2.03;1.90;;;3.80;99.90;;;;;;5015482;28;20231;-85
2020/12/30 01:59:05;;;;;;;2.17;1.83;;;3.80;99.90;;;;;;5015130;28;20793;-85
2020/12/30 02:01:33;;;;;;;2.38;2.15;;;3.90;99.90;;;;;;5015262;28;20200;-86
2020/12/30 02:04:00;;;;;;;4.15;2.75;;;3.90;99.90;;;;;;5013863;28;20204;-84
2020/12/30 02:06:27;;;;;;;3.22;2.20;;;3.90;99.90;;;;;;5014140;28;20207;-84
2020/12/30 02:08:53;;;;;;;2.03;1.85;;;3.90;99.90;;;;;;5015114;28;20235;-84
2020/12/30 02:11:25;;;;;;;5.28;2.10;;;3.90;99.90;;;;;;5015388;28;20211;-85
2020/12/30 02:14:00;;;;;;;2.35;2.15;;;3.90;99.90;;;;;;5014090;28;20208;-85
2020/12/30 02:16:46;;;;;;;2.72;2.15;;;3.90;99.90;;;;;;4996807;28;20233;-85
2020/12/30 02:19:12;;;;;;;2.95;2.10;;;4.00;99.90;;;;;;5014870;28;20222;-85
2020/12/30 02:21:39;;;;;;;2.03;1.80;;;4.00;99.90;;;;;;5013795;28;20210;-85
2020/12/30 02:24:09;;;;;;;2.42;2.22;;;4.00;99.90;;;;;;5015190;28;20231;-85
2020/12/30 02:26:36;;;;;;;3.90;2.58;;;4.00;99.90;;;;;;5014832;28;20282;-84
2020/12/30 02:29:03;;;;;;;3.05;2.35;;;4.00;99.90;;;;;;5015000;28;20353;-84
2020/12/30 02:31:29;;;;;;;2.33;2.08;;;4.00;99.90;;;;;;5014914;28;20287;-85
2020/12/30 02:33:55;;;;;;;2.65;1.77;;;4.00;99.90;;;;;;5013486;28;20298;-85
2020/12/30 02:36:22;;;;;;;3.38;2.20;;;4.00;99.90;;;;;;5013347;28;20310;-85
2020/12/30 02:38:51;;;;;;;3.33;1.92;;;3.90;99.90;;;;;;5015008;28;20208;-84
2020/12/30 02:41:18;;;;;;;1.60;1.48;;;4.00;99.90;;;;;;5014723;28;20286;-84
2020/12/30 02:43:46;;;;;;;2.30;2.10;;;3.90;99.90;;;;;;5014568;28;20199;-85
2020/12/30 02:46:12;;;;;;;4.40;2.47;;;3.90;99.90;;;;;;5014566;28;20254;-85
2020/12/30 02:48:38;;;;;;;5.00;2.83;;;3.80;99.90;;;;;;5014328;28;20210;-84
2020/12/30 02:51:05;;;;;;;1.73;1.63;;;3.80;99.90;;;;;;5014365;28;20294;-86
2020/12/30 02:53:32;;;;;;;1.83;1.50;;;3.80;99.90;;;;;;5013287;28;20294;-85
2020/12/30 02:55:58;;;;;;;1.90;1.80;;;3.80;99.90;;;;;;5014128;28;20231;-85
2020/12/30 02:58:24;;;;;;;2.30;2.00;;;3.70;99.90;;;;;;5014317;28;20345;-85
2020/12/30 03:00:52;;;;;;;4.13;1.30;;;3.70;99.90;;;;;;5014270;28;20207;-85
2020/12/30 03:03:18;;;;;;;3.42;2.08;;;3.70;99.90;;;;;;5014362;28;20692;-85
2020/12/30 03:05:44;;;;;;;1.73;1.63;;;3.70;99.90;;;;;;5013970;28;20292;-85
2020/12/30 03:08:11;;;;;;;2.95;1.52;;;3.80;99.90;;;;;;5012884;28;20762;-85
2020/12/30 03:10:37;;;;;;;1.98;1.55;;;3.90;99.90;;;;;;5013881;28;20638;-85
2020/12/30 03:13:04;;;;;;;2.75;1.50;;;3.90;99.90;;;;;;5013524;28;20619;-85
2020/12/30 03:15:30;;;;;;;1.70;1.60;;;3.90;99.90;;;;;;5014165;28;20283;-86
2020/12/30 03:17:57;;;;;;;1.83;1.60;;;3.90;99.90;;;;;;5013758;28;20322;-85
2020/12/30 03:20:23;;;;;;;2.22;1.50;;;4.00;99.90;;;;;;5013781;28;20620;-86
2020/12/30 03:22:50;;;;;;;1.50;1.40;;;4.00;99.90;;;;;;5011398;28;20314;-86
2020/12/30 03:25:17;;;;;;;1.33;1.23;;;4.00;99.90;;;;;;5013979;28;20307;-85
2020/12/30 03:27:43;;;;;;;2.10;1.55;;;4.00;99.90;;;;;;5013696;28;20287;-86
2020/12/30 03:30:09;;;;;;;1.83;1.70;;;3.90;99.90;;;;;;5013982;28;20203;-85
2020/12/30 03:32:36;;;;;;;4.00;1.40;;;3.90;99.90;;;;;;5013503;28;20639;-85
2020/12/30 03:35:03;;;;;;;4.68;1.55;;;3.90;99.90;;;;;;5012759;28;20307;-85
2020/12/30 03:37:30;;;;;;;1.83;1.50;;;3.80;99.90;;;;;;5012223;28;20258;-85
2020/12/30 03:39:56;;;;;;;1.70;1.60;;;3.80;99.90;;;;;;5013503;28;20299;-85
2020/12/30 03:42:22;;;;;;;1.20;1.10;;;3.80;99.90;;;;;;5013705;28;20203;-85
2020/12/30 03:44:49;;;;;;;1.42;1.30;;;3.80;99.90;;;;;;5013736;28;20235;-86
2020/12/30 03:47:15;;;;;;;1.20;1.10;;;3.80;99.90;;;;;;5013341;28;20283;-85
2020/12/30 03:49:42;;;;;;;1.95;1.25;;;3.80;99.90;;;;;;5013403;28;20207;-85
2020/12/30 03:52:09;;;;;;;2.67;1.35;;;3.80;99.90;;;;;;5011870;28;20217;-85
2020/12/30 03:54:36;;;;;;;2.17;2.03;;;3.80;99.90;;;;;;5013462;28;20249;-84
2020/12/30 03:57:02;;;;;;;1.48;1.30;;;3.90;99.90;;;;;;5013202;28;20791;-85
2020/12/30 03:59:28;;;;;;;1.67;1.35;;;3.90;99.90;;;;;;5013478;28;20230;-87
2020/12/30 04:01:55;;;;;;;2.30;1.45;;;3.90;99.90;;;;;;5013295;28;20294;-85
2020/12/30 04:04:21;;;;;;;2.72;1.52;;;3.90;99.90;;;;;;5013594;28;20306;-85
2020/12/30 04:06:48;;;;;;;1.52;1.42;;;3.90;99.90;;;;;;5008230;28;20298;-85
2020/12/30 04:09:15;;;;;;;1.40;1.30;;;3.90;99.90;;;;;;5013183;28;20615;-85
2020/12/30 04:11:41;;;;;;;1.70;1.40;;;3.90;99.90;;;;;;5013464;28;20212;-86
2020/12/30 04:14:08;;;;;;;1.80;1.48;;;3.90;99.90;;;;;;5002666;28;20208;-85
2020/12/30 04:16:34;;;;;;;1.20;1.10;;;3.90;99.90;;;;;;4993216;28;20232;-85
2020/12/30 04:19:00;;;;;;;1.60;1.48;;;3.90;99.90;;;;;;4993561;28;20771;-86
2020/12/30 04:21:27;;;;;;;1.70;1.48;;;3.80;99.90;;;;;;4992276;28;20303;-86
2020/12/30 04:23:54;;;;;;;1.25;0.90;;;3.70;99.90;;;;;;4993359;28;20294;-86
2020/12/30 04:26:22;;;;;;;3.17;1.20;;;3.70;99.90;;;;;;4993382;28;20255;-85
2020/12/30 04:28:49;;;;;;;1.20;1.10;;;3.60;99.90;;;;;;4993145;28;20243;-85
2020/12/30 04:31:16;;;;;;;1.88;1.30;;;3.60;99.90;;;;;;4993395;28;20208;-85
2020/12/30 04:33:43;;;;;;;1.92;1.27;;;3.50;99.90;;;;;;4996526;28;20230;-84
2020/12/30 04:36:10;;;;;;;1.60;1.10;;;3.50;99.90;;;;;;5012659;28;20274;-85
2020/12/30 04:38:37;;;;;;;1.38;1.23;;;3.40;99.90;;;;;;5012156;28;20283;-85
2020/12/30 04:41:05;;;;;;;2.95;1.80;;;3.40;99.90;;;;;;5012834;28;20230;-85
2020/12/30 04:43:34;;;;;;;5.20;2.80;;;3.40;99.90;;;;;;5012582;28;20282;-85
2020/12/30 04:46:02;;;;;;;3.90;2.40;;;3.40;99.90;;;;;;5012600;28;20215;-85
2020/12/30 04:48:28;;;;;;;3.92;2.70;;;3.40;99.90;;;;;;5012760;28;20290;-85
2020/12/30 04:50:55;;;;;;;4.65;2.85;;;3.40;99.90;;;;;;5012375;28;20207;-86
2020/12/30 04:53:22;;;;;;;5.82;2.40;;;3.30;99.90;;;;;;5011337;28;20302;-85
2020/12/30 04:55:49;;;;;;;3.17;1.60;;;3.20;99.90;;;;;;5012381;28;20299;-84
2020/12/30 04:58:17;;;;;;;3.15;1.58;;;3.20;99.90;;;;;;5012390;28;20290;-84
2020/12/30 05:00:46;;;;;;;1.80;1.60;;;3.10;99.90;;;;;;5012515;28;20200;-84
2020/12/30 05:03:15;;;;;;;1.25;1.15;;;3.00;99.90;;;;;;5012592;28;20294;-85
2020/12/30 05:05:42;;;;;;;2.13;1.70;;;2.90;99.90;;;;;;5012354;28;20639;-85
2020/12/30 05:08:11;;;;;;;1.60;1.50;;;2.80;99.90;;;;;;5006172;28;20326;-85
2020/12/30 05:10:38;;;;;;;2.05;1.27;;;2.70;99.90;;;;;;5012513;28;20347;-85
2020/12/30 05:13:04;;;;;;;2.70;1.85;;;2.70;99.90;;;;;;5012534;28;20234;-85
2020/12/30 05:15:31;;;;;;;4.25;1.83;;;2.60;99.90;;;;;;5011195;28;20286;-86
2020/12/30 05:17:58;;;;;;;1.88;1.40;;;2.60;99.90;;;;;;5012508;28;20243;-85
2020/12/30 05:20:25;;;;;;;3.92;1.85;;;2.60;99.90;;;;;;5012367;28;20210;-86
2020/12/30 05:22:53;;;;;;;2.35;1.45;;;2.60;99.90;;;;;;5011335;28;20311;-85
2020/12/30 05:25:25;;;;;;;7.10;3.17;;;2.60;99.90;;;;;;5012339;28;20211;-85
2020/12/30 05:27:52;;;;;;;11.98;8.20;;;2.60;99.90;;;;;;5012518;28;20234;-85
2020/12/30 05:30:21;;;;;;;8.90;7.60;;;2.50;99.90;;;;;;5012494;28;20214;-85
2020/12/30 05:32:52;;;;;;;10.50;6.63;;;2.60;99.90;;;;;;5012482;28;20346;-85
2020/12/30 05:35:20;;;;;;;7.43;4.57;;;2.60;99.90;;;;;;5013315;28;20302;-85
2020/12/30 05:37:47;;;;;;;4.63;4.22;;;2.60;99.90;;;;;;5014604;28;20235;-84
2020/12/30 05:40:20;;;;;;;6.65;3.30;;;2.50;99.90;;;;;;5016067;28;20231;-84
2020/12/30 05:42:47;;;;;;;3.90;3.40;;;2.50;99.90;;;;;;5016031;28;20292;-85
2020/12/30 05:45:19;;;;;;;3.33;3.05;;;2.50;99.90;;;;;;5015689;28;20302;-85
2020/12/30 05:47:45;;;;;;;3.80;2.88;;;2.40;99.90;;;;;;5015844;28;20203;-84
2020/12/30 05:50:12;;;;;;;4.75;3.20;;;2.40;99.90;;;;;;5015246;28;20298;-85
2020/12/30 05:52:40;;;;;;;2.60;2.40;;;2.40;99.90;;;;;;5013056;28;20222;-85
2020/12/30 05:55:09;;;;;;;4.97;2.83;;;2.40;99.90;;;;;;5015397;28;20326;-85
2020/12/30 05:57:37;;;;;;;2.92;2.55;;;2.40;99.90;;;;;;5015353;28;20596;-84
2020/12/30 06:00:08;;;;;;;4.43;2.10;;;2.50;99.90;;;;;;5015828;28;20662;-84
2020/12/30 06:02:38;;;;;;;3.25;2.13;;;2.50;99.90;;;;;;5015478;28;20207;-84
2020/12/30 06:05:11;;;;;;;3.05;2.28;;;2.50;99.90;;;;;;5014474;28;20302;-85
2020/12/30 06:07:39;;;;;;;2.65;1.65;;;2.60;99.90;;;;;;5014077;28;20663;-85
2020/12/30 06:10:07;;;;;;;4.05;2.45;;;2.60;99.90;;;;;;5015361;28;20391;-85
2020/12/30 06:12:39;;;;;;;3.00;2.70;;;2.70;99.90;;;;;;5015431;28;20294;-87
2020/12/30 06:15:06;;;;;;;7.03;2.58;;;2.70;99.90;;;;;;5015366;28;20286;-85
2020/12/30 06:17:32;;;;;;;6.45;2.50;;;2.80;99.90;;;;;;5014830;28;20235;-85
2020/12/30 06:19:59;;;;;;;5.05;2.95;;;2.80;99.90;;;;;;5014997;28;20298;-86
2020/12/30 06:22:26;;;;;;;3.22;2.83;;;2.90;99.90;;;;;;5017932;28;20249;-85
2020/12/30 06:24:55;;;;;;;3.53;2.17;;;3.00;99.90;;;;;;5015116;28;20243;-85
2020/12/30 06:27:25;;;;;;;4.38;1.70;;;3.00;99.90;;;;;;5014928;28;20236;-85
2020/12/30 06:29:55;;;;;;;3.20;1.80;;;3.10;99.90;;;;;;5014970;28;20204;-85
2020/12/30 06:32:34;;;;;;;1.95;1.33;;;3.20;99.90;;;;;;5014967;28;20214;-85
2020/12/30 06:35:02;;;;;;;1.88;1.70;;;3.20;99.90;;;;;;5013329;28;20243;-85
2020/12/30 06:37:33;;;;;;;2.72;1.60;;;3.30;99.90;;;;;;5013527;28;20318;-85
2020/12/30 06:40:20;;;;;;;1.35;1.25;;;3.30;99.90;;;;;;5014854;28;20291;-85
2020/12/30 06:42:52;;;;;;;2.50;2.17;;;3.30;99.90;;;;;;5014696;28;20286;-86
2020/12/30 06:45:52;;;;;;;3.92;2.10;;;3.30;99.90;;;;;;5014653;28;20203;-87
2020/12/30 06:48:20;;;;;;;7.70;1.85;;;3.30;99.90;;;;;;5013868;28;20218;-85
2020/12/30 06:50:47;;;;;;;3.15;1.70;;;3.30;99.90;;;;;;5014066;28;20204;-85
2020/12/30 06:53:28;;;;;;;3.03;1.60;;;3.30;99.90;;;;;;5013250;28;20231;-85
2020/12/30 06:55:56;;;;;;;1.50;1.40;;;3.30;99.90;;;;;;5014570;28;20211;-85
2020/12/30 06:58:47;;;;;;;1.90;1.40;;;3.20;99.90;;;;;;5014338;28;20648;-86
2020/12/30 07:01:14;;;;;;;3.58;1.95;;;3.20;99.90;;;;;;5014130;28;20290;-87
2020/12/30 07:03:42;;;;;;;4.20;2.25;;;3.30;99.90;;;;;;5013503;28;20239;-85
2020/12/30 07:06:31;;;;;;;5.05;1.73;;;3.20;99.90;;;;;;5013976;28;20338;-85
2020/12/30 07:09:03;;;;;;;1.92;1.83;;;3.20;99.90;;;;;;5013878;28;20263;-85
2020/12/30 07:11:57;;;;;;;3.67;2.50;;;3.20;99.90;;;;;;5014156;28;20298;-84
2020/12/30 07:14:25;;;;;;;3.08;2.60;;;3.10;99.90;;;;;;4979400;28;20243;-85
2020/12/30 07:16:53;;;;;;;3.40;2.33;;;3.10;99.90;;;;;;5013947;28;20354;-85
2020/12/30 07:19:23;;;;;;;3.90;2.88;;;3.10;99.90;;;;;;5013569;28;20207;-85
2020/12/30 07:22:01;;;;;;;7.68;2.60;;;3.10;99.90;;;;;;5012782;28;20290;-85
2020/12/30 07:24:30;;;;;;;3.35;2.83;;;3.10;99.90;;;;;;5013958;28;20592;-85
2020/12/30 07:26:59;;;;;;;2.92;1.73;;;3.00;99.90;;;;;;5013843;28;20671;-85
2020/12/30 07:29:26;;;;;;;1.58;1.48;;;2.90;99.90;;;;;;5013779;28;20290;-86
2020/12/30 07:31:55;;;;;;;3.03;1.20;;;2.90;99.90;;;;;;5013919;28;20299;-86
2020/12/30 07:34:25;;;;;;;6.78;2.05;;;2.90;99.90;;;;;;5012315;28;20238;-85
2020/12/30 07:36:52;;;;;;;1.73;1.48;;;2.80;99.90;;;;;;5011252;28;20324;-86
2020/12/30 07:39:27;;;;;;;2.97;1.83;;;2.80;99.90;;;;;;5013706;28;20234;-85
2020/12/30 07:41:54;;;;;;;3.95;1.83;;;2.80;99.90;;;;;;5013603;28;20375;-85
2020/12/30 07:44:21;;;;;;;4.03;2.00;;;2.90;99.90;;;;;;5013739;28;20733;-87
2020/12/30 07:46:48;;;;;;;1.67;1.52;;;3.00;99.90;;;;;;5013421;28;20294;-86
2020/12/30 07:49:16;;;;;;;1.80;1.60;;;3.10;99.90;;;;;;5013128;28;20204;-86
2020/12/30 07:51:47;;;;;;;2.28;1.92;;;3.10;99.90;;;;;;5012370;28;20211;-85
2020/12/30 07:54:14;;;;;;;2.45;2.25;;;3.20;99.90;;;;;;5013630;28;20243;-86
2020/12/30 07:56:41;;;;;;;3.47;2.33;;;3.20;99.90;;;;;;5013232;28;20702;-85
2020/12/30 07:59:08;;;;;;;1.80;1.65;;;3.30;99.90;;;;;;5012938;28;20202;-85
2020/12/30 08:01:35;;;;;;;3.25;2.70;;;3.30;99.90;;;;;;5013259;28;20199;-85
2020/12/30 08:04:08;;;;;;;3.72;1.75;;;3.40;99.90;;;;;;5000855;28;20902;-84
2020/12/30 08:06:44;;;;;;;1.98;1.65;;;3.50;99.90;;;;;;4992459;28;20934;-84
2020/12/30 08:09:11;;;;;;;1.80;1.70;;;3.50;99.90;;;;;;4993392;28;20437;-84
2020/12/30 08:11:46;;;;;;;4.20;2.50;;;3.60;99.90;;;;;;4992508;28;20972;-84
2020/12/30 08:14:13;;;;;;;1.65;1.55;;;3.70;99.90;;;;;;4993461;28;20237;-83
2020/12/30 08:16:49;;;;;;;2.20;2.00;;;3.90;99.90;;;;;;5006002;28;20227;-78
2020/12/30 08:19:27;;;;;;;1.80;1.70;;;3.90;99.90;;;;;;5012623;28;20301;-77
2020/12/30 08:22:02;;;;;;;1.50;1.27;;;4.40;99.90;;;;;;5011673;28;20286;-84
2020/12/30 08:24:29;;;;;;;4.63;2.03;;;4.70;99.90;;;;;;5012831;28;20203;-83
2020/12/30 08:26:56;;;;;;;1.90;1.70;;;4.60;99.90;;;;;;5013016;28;20284;-82
2020/12/30 08:29:22;;;;;;;2.50;2.28;;;4.50;99.90;;;;;;5012845;28;20211;-83
2020/12/30 08:31:56;;;;;;;3.92;1.60;;;4.50;99.90;;;;;;5014396;28;20234;-83
2020/12/30 08:34:35;;;;;;;1.30;1.30;;;4.40;99.90;;;;;;5011480;28;20678;-83
2020/12/30 08:37:05;;;;;;;2.00;1.63;;;4.30;99.90;;;;;;5011469;28;20722;-83
2020/12/30 08:39:35;;;;;;;1.77;1.20;;;4.40;99.90;;;;;;5012743;28;20290;-83
2020/12/30 08:42:08;;;;;;;76.25;46.40;;;4.50;99.90;;;;;;5012847;28;20210;-83
2020/12/30 08:44:44;;;;;;;19.95;13.93;;;4.70;99.90;;;;;;5012534;28;20685;-82
2020/12/30 08:47:13;;;;;;;9.20;7.10;;;4.80;99.90;;;;;;5012901;28;20284;-83
2020/12/30 08:49:43;;;;;;;5.43;4.13;;;4.90;99.90;;;;;;5012189;28;20211;-82
2020/12/30 08:52:19;;;;;;;7.18;3.53;;;4.80;99.90;;;;;;5011539;28;20567;-83
2020/12/30 08:54:46;;;;;;;2.55;1.52;;;4.90;99.90;;;;;;5012684;28;20203;-83
2020/12/30 08:57:19;;;;;;;1.40;1.30;;;4.80;99.90;;;;;;5012548;28;20326;-83
2020/12/30 08:59:45;;;;;;;1.35;1.25;;;4.80;99.90;;;;;;5012608;28;20212;-83
2020/12/30 09:02:13;;;;;;;2.67;2.40;;;4.80;99.90;;;;;;5012695;28;20338;-83
2020/12/30 09:04:52;;;;;;;4.57;2.38;;;4.70;99.90;;;;;;5012313;28;20297;-83
2020/12/30 09:07:25;;;;;;;8.52;5.40;;;4.70;99.90;;;;;;5011321;28;20298;-83
2020/12/30 09:10:01;;;;;;;3.30;2.45;;;4.70;99.90;;;;;;5012996;28;20239;-83
2020/12/30 09:12:28;;;;;;;3.08;1.85;;;4.70;99.90;;;;;;5016465;28;20729;-83
2020/12/30 09:14:55;;;;;;;4.03;2.42;;;4.80;99.90;;;;;;5016226;28;20299;-83
2020/12/30 09:17:22;;;;;;;3.28;2.63;;;4.80;99.90;;;;;;5017165;28;20777;-83
2020/12/30 09:19:49;;;;;;;3.08;2.00;;;4.70;99.90;;;;;;5016020;28;20210;-84
2020/12/30 09:22:15;;;;;;;2.80;1.50;;;4.80;99.90;;;;;;5014901;28;20210;-83
2020/12/30 09:24:43;;;;;;;1.92;1.80;;;4.90;99.90;;;;;;5016037;28;20211;-83
2020/12/30 09:27:20;;;;;;;3.28;2.40;;;5.00;99.90;;;;;;5015834;28;20706;-82
2020/12/30 09:30:07;;;;;;;4.18;2.55;;;5.00;99.90;;;;;;5015971;28;20203;-80
2020/12/30 09:32:34;;;;;;;7.55;3.95;;;5.10;99.90;;;;;;5015971;28;20696;-83
2020/12/30 09:35:01;;;;;;;3.55;2.78;;;5.10;99.90;;;;;;5014496;28;20298;-83
2020/12/30 09:37:28;;;;;;;5.85;3.97;;;5.10;99.90;;;;;;5014748;28;20235;-83
2020/12/30 09:40:10;;;;;;;4.65;3.33;;;5.00;99.90;;;;;;5015564;28;20199;-83
2020/12/30 09:42:37;;;;;;;3.45;2.40;;;5.10;99.90;;;;;;5015749;28;20295;-85
2020/12/30 09:45:05;;;;;;;6.60;4.18;;;5.20;99.90;;;;;;5015612;28;20305;-84
2020/12/30 09:47:32;;;;;;;2.30;2.10;;;5.20;99.90;;;;;;5015571;28;20299;-84
2020/12/30 09:49:59;;;;;;;2.55;2.00;;;5.20;99.90;;;;;;5015215;28;20299;-83
2020/12/30 09:52:26;;;;;;;3.35;1.90;;;5.40;99.90;;;;;;5014417;28;20246;-81
2020/12/30 09:54:52;;;;;;;2.47;2.20;;;5.40;99.90;;;;;;5015630;28;20719;-84
2020/12/30 09:57:18;;;;;;;2.55;1.95;;;5.40;99.90;;;;;;5015294;28;20285;-83
2020/12/30 09:59:49;;;;;;;1.80;1.70;;;5.40;99.90;;;;;;5015535;28;20299;-82
2020/12/30 10:02:16;;;;;;;2.88;2.30;;;5.50;99.90;;;;;;5015396;28;20576;-83
2020/12/30 10:04:42;;;;;;;3.22;2.25;;;5.60;99.90;;;;;;5014967;28;20295;-82
2020/12/30 10:07:09;;;;;;;7.15;3.92;;;5.50;99.90;;;;;;5014214;28;20298;-84
2020/12/30 10:09:36;;;;;;;6.47;2.60;;;5.50;99.90;;;;;;5015295;28;20322;-83
2020/12/30 10:12:02;;;;;;;4.10;3.28;;;5.70;99.90;;;;;;5015445;28;20199;-84
2020/12/30 10:14:28;;;;;;;4.88;2.10;;;5.70;99.90;;;;;;5015387;28;20294;-84
2020/12/30 10:16:55;;;;;;;3.85;1.80;;;5.80;99.90;;;;;;5015173;28;20322;-84
2020/12/30 10:19:21;;;;;;;2.88;2.45;;;5.80;99.90;;;;;;5015255;28;20222;-84
2020/12/30 10:21:48;;;;;;;2.83;2.60;;;5.80;99.90;;;;;;5013624;28;20203;-84
2020/12/30 10:24:15;;;;;;;6.55;2.80;;;5.90;99.90;;;;;;5015146;28;20261;-84
2020/12/30 10:26:41;;;;;;;2.60;2.40;;;6.00;99.90;;;;;;5015018;28;20294;-84
2020/12/30 10:29:08;;;;;;;3.10;1.85;;;5.90;99.90;;;;;;5014869;28;20255;-85
2020/12/30 10:31:34;;;;;;;4.63;2.58;;;6.00;99.90;;;;;;5014839;28;20286;-84
2020/12/30 10:34:00;;;;;;;2.00;1.90;;;6.10;99.90;;;;;;5013448;28;20212;-83
2020/12/30 10:36:30;;;;;;;1.63;1.52;;;5.90;99.90;;;;;;5013539;28;20239;-84
2020/12/30 10:38:57;;;;;;;3.47;1.75;;;5.90;99.90;;;;;;5015139;28;20199;-84
2020/12/30 10:41:25;;;;;;;2.10;1.63;;;5.90;99.90;;;;;;5016859;28;20766;-84
2020/12/30 10:43:51;;;;;;;3.67;1.70;;;5.90;99.90;;;;;;5014845;28;20271;-84
2020/12/30 10:46:18;;;;;;;4.40;3.03;;;5.90;99.90;;;;;;5014700;28;20794;-83
2020/12/30 10:48:45;;;;;;;5.10;1.70;;;5.90;99.90;;;;;;5014378;28;20298;-83
2020/12/30 10:51:12;;;;;;;2.42;2.22;;;5.80;99.90;;;;;;5014358;28;20509;-83
2020/12/30 10:53:38;;;;;;;1.60;1.40;;;5.70;99.90;;;;;;5013159;28;20235;-83
2020/12/30 10:56:05;;;;;;;3.20;2.20;;;5.60;99.90;;;;;;5014503;28;20290;-86
2020/12/30 10:58:32;;;;;;;3.30;2.20;;;5.70;99.90;;;;;;5014294;28;20709;-84
2020/12/30 11:00:59;;;;;;;7.70;4.50;;;5.60;99.90;;;;;;5014144;28;20290;-83
2020/12/30 11:03:25;;;;;;;10.88;5.53;;;5.60;99.90;;;;;;5012252;28;20727;-82
2020/12/30 11:05:51;;;;;;;5.00;2.70;;;5.70;99.90;;;;;;4994263;28;20295;-83
2020/12/30 11:08:18;;;;;;;5.22;2.40;;;5.80;99.90;;;;;;4993271;28;20326;-82
2020/12/30 11:10:44;;;;;;;1.75;1.65;;;5.70;99.90;;;;;;4994649;28;20295;-83
2020/12/30 11:13:10;;;;;;;2.72;2.50;;;5.60;99.90;;;;;;4994722;28;20537;-82
2020/12/30 11:15:39;;;;;;;20.80;10.20;;;5.80;99.90;;;;;;4994602;28;20300;-83
2020/12/30 11:18:05;;;;;;;4.18;2.75;;;5.80;99.90;;;;;;5011325;28;20238;-81
2020/12/30 11:20:35;;;;;;;4.82;1.60;;;5.90;99.90;;;;;;5013826;28;20297;-83
2020/12/30 11:23:01;;;;;;;7.53;2.30;;;6.00;99.90;;;;;;5012964;28;20220;-83
2020/12/30 11:25:27;;;;;;;4.90;3.60;;;5.90;99.90;;;;;;5013935;28;20536;-82
2020/12/30 11:27:54;;;;;;;1.83;1.73;;;6.00;99.90;;;;;;5013917;28;20200;-81
2020/12/30 11:30:20;;;;;;;3.35;2.30;;;5.80;99.90;;;;;;5013709;28;20298;-84
2020/12/30 11:32:47;;;;;;;27.77;18.40;;;5.80;99.90;;;;;;5013250;28;20291;-83
2020/12/30 11:35:14;;;;;;;2.60;2.13;;;5.80;99.90;;;;;;5013336;28;20246;-83
2020/12/30 11:37:40;;;;;;;3.42;1.45;;;5.90;99.90;;;;;;5012692;28;20241;-82
2020/12/30 11:40:07;;;;;;;4.18;2.55;;;5.80;99.90;;;;;;5013981;28;20246;-83
2020/12/30 11:42:33;;;;;;;3.07;2.87;;;5.80;99.90;;;;;;5014143;28;20587;-83
2020/12/30 11:45:02;;;;;;;3.58;3.25;;;5.90;99.90;;;;;;5013573;28;20459;-82
2020/12/30 11:47:32;;;;;;;5.67;3.00;;;5.80;99.90;;;;;;5013728;28;20296;-83
2020/12/30 11:49:59;;;;;;;15.68;10.85;;;5.90;99.90;;;;;;5013459;28;20486;-82
2020/12/30 11:52:25;;;;;;;4.53;3.55;;;6.00;99.90;;;;;;5012556;28;20203;-83
2020/12/30 11:54:52;;;;;;;5.25;4.38;;;6.00;99.90;;;;;;5013554;28;20249;-83
2020/12/30 11:57:18;;;;;;;3.50;2.72;;;6.20;99.90;;;;;;5013060;28;20227;-83
2020/12/30 11:59:44;;;;;;;3.40;3.10;;;6.10;99.90;;;;;;5013205;28;20293;-82
2020/12/30 12:02:11;;;;;;;2.80;1.97;;;6.30;99.90;;;;;;5013108;28;20985;-83
2020/12/30 12:04:38;;;;;;;1.57;1.47;;;6.30;99.90;;;;;;5013044;28;20463;-82
2020/12/30 12:07:06;;;;;;;3.17;2.37;;;6.40;99.90;;;;;;5012100;28;20893;-83
2020/12/30 12:09:32;;;;;;;2.00;1.80;;;6.50;99.90;;;;;;5014637;28;20884;-84
2020/12/30 12:12:00;;;;;;;4.07;3.57;;;6.60;99.90;;;;;;5015543;28;20936;-83
2020/12/30 12:14:30;;;;;;;6.33;4.20;;;6.60;99.90;;;;;;5009403;28;20451;-84
2020/12/30 12:16:58;;;;;;;3.50;1.47;;;6.80;99.90;;;;;;5013050;28;20490;-82
2020/12/30 12:19:26;;;;;;;1.73;1.63;;;7.00;99.90;;;;;;5013044;28;20512;-84
2020/12/30 12:21:52;;;;;;;4.33;1.77;;;7.10;99.90;;;;;;5012025;28;20541;-85
2020/12/30 12:24:20;;;;;;;5.20;1.77;;;7.10;99.90;;;;;;5012991;28;20537;-84
2020/12/30 12:26:46;;;;;;;2.77;2.57;;;7.20;99.90;;;;;;5012837;28;20862;-84
2020/12/30 12:29:47;;;;;;;4.50;2.80;;;7.10;99.90;;;;;;5013098;28;20478;-85
2020/12/30 12:32:15;;;;;;;4.87;2.97;;;7.00;99.90;;;;;;5012936;28;20454;-84
2020/12/30 12:34:43;;;;;;;2.10;1.67;;;7.20;99.90;;;;;;5011661;28;20521;-84
2020/12/30 12:37:10;;;;;;;3.00;1.50;;;7.20;99.90;;;;;;5011304;28;20573;-84
2020/12/30 12:39:39;;;;;;;1.77;1.47;;;7.20;99.90;;;;;;5012954;28;20537;-85
2020/12/30 12:42:07;;;;;;;60.53;29.80;;;7.20;99.90;;;;;;5014520;28;20477;-84
2020/12/30 12:44:33;;;;;;;78.50;35.50;;;7.10;99.90;;;;;;5012699;28;20474;-84
2020/12/30 12:47:00;;;;;;;37.23;18.83;;;7.10;99.90;;;;;;5017029;28;20529;-84
2020/12/30 12:49:27;;;;;;;32.67;18.30;;;7.00;99.90;;;;;;5016600;28;20458;-84
2020/12/30 12:51:54;;;;;;;4.93;2.63;;;7.10;99.90;;;;;;5015362;28;20537;-86
2020/12/30 12:54:21;;;;;;;2.73;1.67;;;7.00;99.90;;;;;;5016832;28;20552;-86
2020/12/30 12:56:53;;;;;;;7.70;4.50;;;7.10;99.90;;;;;;5016445;28;20971;-82
2020/12/30 12:59:20;;;;;;;4.23;2.87;;;7.10;99.90;;;;;;5016685;28;20461;-85
2020/12/30 13:01:46;;;;;;;5.23;3.93;;;7.00;99.90;;;;;;5016571;28;20513;-84